Levantes — V7DS6 — position and weather

sailwx.info

Track history (hours):
 
Tides and Currents Weather Stations Pressure Air Temp Water Temp Dewpoint Dewpoint Depression Visibility Wind Speed Wind Dir Waves Ship Positions

Levantes

Last reported at 2017-Sep-21 18:20 UTC. Time now 2017-Oct-22 04:56 UTC.
Position N 37°11' E 025°49'.
Warning: this ship's position is 30 days out of date.

Length 225 m; draft 13 m.

Type: Cargo ship. MMSI: 538006969.

Date/timePositionNaut miles runAvg speedWind from/ knotsBaromVisibWave heightAir tempDewpointWater temp
2017-Sep-21 18:20N 37°11' E 025°49'411.5
2017-Sep-21 18:00N 37°12' E 025°44'812.0
2017-Sep-21 17:19N 37°14' E 025°34'412.2
2017-Sep-21 17:00N 37°15' E 025°30'612.0
2017-Sep-21 16:31N 37°16' E 025°22'612.0
2017-Sep-21 16:00N 37°18' E 025°15'611.6
2017-Sep-21 15:30N 37°18' E 025°08'611.4
2017-Sep-21 15:00N 37°17' E 025°00'611.7
2017-Sep-21 14:30N 37°17' E 024°53'5610.3
2017-Sep-21 09:08N 37°34' E 023°46'211.6
2017-Sep-21 09:00N 37°35' E 023°45'611.6
2017-Sep-21 08:30N 37°40' E 023°42'611.8
2017-Sep-21 08:00N 37°45' E 023°39'611.5
2017-Sep-21 07:30N 37°50' E 023°35'2 4.4
2017-Sep-21 06:58N 37°52' E 023°33'0 0.2
2017-Sep-21 06:28N 37°52' E 023°33'0 0.1
2017-Sep-21 05:58N 37°52' E 023°33'0 0.1
2017-Sep-21 05:28N 37°52' E 023°33'0 0.1
2017-Sep-21 04:58N 37°52' E 023°33'0 0.0
2017-Sep-21 04:28N 37°52' E 023°33'0 0.0
2017-Sep-21 03:58N 37°52' E 023°33'0 0.0
2017-Sep-21 03:28N 37°52' E 023°33'0 0.0
2017-Sep-21 02:58N 37°52' E 023°33'0 0.1
2017-Sep-21 02:30N 37°52' E 023°33'0 0.6
2017-Sep-21 02:00N 37°52' E 023°33'2 4.5
2017-Sep-21 01:30N 37°53' E 023°36'3 6.4
2017-Sep-21 01:00N 37°51' E 023°39'4 8.8
2017-Sep-21 00:30N 37°47' E 023°42'5 9.8
2017-Sep-21 00:00N 37°42' E 023°44'510.0
2017-Sep-20 23:30N 37°38' E 023°47'510.1
2017-Sep-20 23:00N 37°36' E 023°53'5 9.7
2017-Sep-20 22:30N 37°36' E 023°59'6 9.6
2017-Sep-20 21:51N 37°36' E 024°07'10 9.6
2017-Sep-20 20:47N 37°45' E 024°13'6 0.7
2017-Sep-20 12:23N 37°50' E 024°17'7 9.8
2017-Sep-20 11:42N 37°52' E 024°25'2 9.8
2017-Sep-20 11:31N 37°53' E 024°27'37 9.6
2017-Sep-20 07:39N 38°23' E 024°53'110.4
2017-Sep-20 07:31N 38°25' E 024°54'510.3
2017-Sep-20 07:01N 38°29' E 024°57'510.4
2017-Sep-20 06:30N 38°34' E 024°60'910.4
2017-Sep-20 05:36N 38°43' E 025°05'110.5
2017-Sep-20 05:29N 38°44' E 025°05'810.6
2017-Sep-20 04:43N 38°51' E 025°11'1510.3
2017-Sep-20 03:17N 39°04' E 025°20'4110.5
2017-Sep-19 23:24N 39°40' E 025°44'410.9
2017-Sep-19 23:00N 39°44' E 025°46'510.8
2017-Sep-19 22:30N 39°49' E 025°49'611.1
2017-Sep-19 22:00N 39°53' E 025°53'611.2
2017-Sep-19 21:28N 39°59' E 025°57'610.0
2017-Sep-19 20:52N 40°01' E 026°04'410.1
2017-Sep-19 20:30N 40°02' E 026°09'510.2
2017-Sep-19 20:00N 40°03' E 026°15'10 9.5
2017-Sep-19 18:58N 40°11' E 026°23'8 9.8
2017-Sep-19 18:11N 40°16' E 026°31'410.2
2017-Sep-19 17:49N 40°18' E 026°34'810.5
2017-Sep-19 17:06N 40°24' E 026°41'110.3
2017-Sep-19 16:58N 40°25' E 026°42'510.6
2017-Sep-19 16:30N 40°27' E 026°48'510.2
2017-Sep-19 16:00N 40°30' E 026°53'113 6.7
2017-Sep-18 23:13N 41°18' E 029°08'2 8.9
2017-Sep-18 23:00N 41°20' E 029°09'7 9.3
2017-Sep-18 22:17N 41°26' E 029°13'0 0.4
2017-Sep-18 21:12N 41°26' E 029°13'0 0.4
2017-Sep-18 21:00N 41°26' E 029°13'0 0.4
2017-Sep-18 20:11N 41°26' E 029°13'0 0.5
2017-Sep-18 20:00N 41°26' E 029°14'0 0.5
2017-Sep-18 19:30N 41°26' E 029°14'0 0.5
2017-Sep-18 18:56N 41°26' E 029°14'0 0.5
2017-Sep-18 18:13N 41°26' E 029°15'0 0.5
2017-Sep-18 17:19N 41°26' E 029°15'0 0.4
2017-Sep-18 17:01N 41°26' E 029°15'0 0.4
2017-Sep-18 15:56N 41°27' E 029°16'0 0.4
2017-Sep-18 15:26N 41°27' E 029°16'0 0.5
2017-Sep-18 15:00N 41°27' E 029°16'0 0.4
2017-Sep-18 14:29N 41°27' E 029°16'0 0.5
2017-Sep-18 14:00N 41°27' E 029°16'0 0.4
2017-Sep-18 13:30N 41°27' E 029°17'0 0.4
2017-Sep-18 12:58N 41°28' E 029°17'0 0.4
2017-Sep-18 12:12N 41°28' E 029°17'0 0.4
2017-Sep-18 12:00N 41°28' E 029°17'2 0.3
2017-Sep-18 06:16N 41°29' E 029°15'0 0.2
2017-Sep-18 05:38N 41°29' E 029°15'0 0.2
2017-Sep-18 05:30N 41°29' E 029°15'0 0.2
2017-Sep-18 04:57N 41°29' E 029°15'0 0.2
2017-Sep-18 04:29N 41°29' E 029°15'0 0.1
2017-Sep-18 04:01N 41°29' E 029°15'0 0.1
2017-Sep-18 03:30N 41°29' E 029°15'0 0.1
2017-Sep-18 02:58N 41°29' E 029°15'0 0.2
2017-Sep-18 02:30N 41°29' E 029°15'0 0.1
2017-Sep-18 02:01N 41°29' E 029°15'0 0.1
2017-Sep-18 01:30N 41°29' E 029°15'0 0.2
2017-Sep-18 01:00N 41°29' E 029°15'0 0.2
2017-Sep-18 00:30N 41°29' E 029°15'0 0.2
2017-Sep-18 00:00N 41°29' E 029°15'0 0.2
2017-Sep-17 23:30N 41°29' E 029°15'0 0.2
2017-Sep-17 23:01N 41°29' E 029°15'0 0.2
2017-Sep-17 22:30N 41°29' E 029°15'0 0.3
2017-Sep-17 22:00N 41°30' E 029°15'0 0.3
2017-Sep-17 21:30N 41°30' E 029°16'0 0.3
2017-Sep-17 20:57N 41°30' E 029°16'0 0.4
2017-Sep-17 20:14N 41°30' E 029°16'0 0.4
2017-Sep-17 19:47N 41°30' E 029°16'11 2.8
2017-Sep-17 15:39N 41°42' E 029°17'110.0
2017-Sep-17 15:30N 41°43' E 029°18'9 9.9
2017-Sep-17 14:37N 41°51' E 029°21'21 9.8
2017-Sep-17 12:29N 42°12' E 029°28'8 9.7
2017-Sep-17 11:41N 42°19' E 029°32'2 9.9
2017-Sep-17 11:29N 42°21' E 029°32'5 9.8
2017-Sep-17 11:00N 42°25' E 029°34'5 9.8
2017-Sep-17 10:29N 42°30' E 029°36'5 9.8
2017-Sep-17 10:00N 42°35' E 029°38'510.0
2017-Sep-17 09:30N 42°40' E 029°40'510.3
2017-Sep-17 09:00N 42°44' E 029°42'510.3
2017-Sep-17 08:30N 42°49' E 029°44'510.7
2017-Sep-17 08:00N 42°54' E 029°47'610.8
2017-Sep-17 07:29N 42°60' E 029°48'2511.0
2017-Sep-17 05:13N 43°24' E 029°58'311.1
2017-Sep-17 05:00N 43°26' E 029°59'511.0
2017-Sep-17 04:30N 43°31' E 030°01'611.1
2017-Sep-17 04:00N 43°37' E 030°03'611.0
2017-Sep-17 03:30N 43°42' E 030°06'611.1
2017-Sep-17 02:56N 43°48' E 030°08'511.2
2017-Sep-17 02:30N 43°53' E 030°10'511.1
2017-Sep-17 02:00N 43°58' E 030°12'611.1
2017-Sep-17 01:30N 44°03' E 030°14'611.1
2017-Sep-17 01:00N 44°09' E 030°16'511.0
2017-Sep-17 00:30N 44°14' E 030°19'511.0
2017-Sep-17 00:01N 44°19' E 030°21'611.1
2017-Sep-16 23:31N 44°24' E 030°23'611.2
2017-Sep-16 23:00N 44°30' E 030°25'611.2
2017-Sep-16 22:30N 44°35' E 030°27'510.9
2017-Sep-16 22:00N 44°40' E 030°30'510.9
2017-Sep-16 21:31N 44°46' E 030°32'510.8
2017-Sep-16 21:00N 44°51' E 030°34'510.6
2017-Sep-16 20:30N 44°56' E 030°36'510.7
2017-Sep-16 20:00N 45°01' E 030°38'510.8
2017-Sep-16 19:31N 45°06' E 030°40'510.9
2017-Sep-16 19:01N 45°11' E 030°42'510.8
2017-Sep-16 18:30N 45°17' E 030°45'510.7
2017-Sep-16 18:01N 45°22' E 030°47'510.9
2017-Sep-16 17:31N 45°27' E 030°49'510.6
2017-Sep-16 17:00N 45°32' E 030°51'510.8
2017-Sep-16 16:30N 45°37' E 030°53'510.8
2017-Sep-16 16:00N 45°42' E 030°55'510.5
2017-Sep-16 15:31N 45°47' E 030°57'510.6
2017-Sep-16 15:01N 45°53' E 030°60'510.6
2017-Sep-16 14:31N 45°58' E 031°02'510.7
2017-Sep-16 14:00N 46°03' E 031°04'510.0
2017-Sep-16 13:30N 46°08' E 031°03'510.7
2017-Sep-16 13:00N 46°12' E 030°58'5 9.9
2017-Sep-16 12:30N 46°15' E 030°54'510.7
2017-Sep-16 12:00N 46°21' E 030°55'510.3
2017-Sep-16 11:30N 46°26' E 030°55'5 9.8
2017-Sep-16 10:59N 46°31' E 030°56'2 3.4
2017-Sep-16 10:27N 46°32' E 030°58'0 0.1
2017-Sep-16 10:00N 46°32' E 030°58'0 0.0
2017-Sep-16 09:27N 46°32' E 030°58'0 0.0
2017-Sep-16 08:51N 46°32' E 030°58'0 0.0
2017-Sep-16 07:54N 46°32' E 030°58'0 0.0
2017-Sep-16 07:27N 46°32' E 030°58'0 0.0
2017-Sep-16 06:30N 46°32' E 030°58'0 0.0
2017-Sep-16 05:39N 46°32' E 030°58'0 0.0
2017-Sep-16 05:30N 46°32' E 030°58'0 0.0
2017-Sep-15 23:33N 46°32' E 030°58'0 0.0
2017-Sep-15 23:21N 46°32' E 030°58'0 0.0
2017-Sep-15 23:00N 46°32' E 030°58'0 0.0
2017-Sep-15 22:30N 46°32' E 030°58'0 0.0
2017-Sep-15 19:04N 46°32' E 030°58'0 0.1
2017-Sep-15 18:40N 46°32' E 030°58'0 0.1
2017-Sep-15 18:19N 46°32' E 030°58'0 0.2
2017-Sep-15 17:10N 46°32' E 030°58'0 0.1
2017-Sep-15 16:58N 46°32' E 030°58'0 0.1
2017-Sep-15 16:22N 46°32' E 030°58'0 0.0
2017-Sep-15 15:58N 46°32' E 030°58'0 0.0
2017-Sep-15 14:10N 46°32' E 030°58'0 0.0
2017-Sep-15 13:58N 46°32' E 030°58'0 0.0
2017-Sep-15 13:28N 46°32' E 030°58'0 0.0
2017-Sep-15 12:55N 46°32' E 030°58'0 0.0
2017-Sep-15 12:22N 46°32' E 030°58'0 0.0
2017-Sep-15 10:25N 46°32' E 030°58'0 0.0
2017-Sep-15 06:25N 46°32' E 030°58'0 0.0
2017-Sep-15 03:31N 46°32' E 030°58'0 0.1
2017-Sep-15 03:25N 46°32' E 030°58'0 0.0
2017-Sep-14 23:52N 46°32' E 030°58'0 0.0
2017-Sep-14 23:28N 46°32' E 030°58'0 0.0
2017-Sep-14 22:58N 46°32' E 030°58'0 0.0
2017-Sep-14 22:28N 46°32' E 030°58'0 0.0
2017-Sep-14 21:58N 46°32' E 030°58'0 0.0
2017-Sep-14 21:28N 46°32' E 030°58'0 0.0
2017-Sep-14 20:16N 46°32' E 030°58'0 0.0
2017-Sep-14 19:58N 46°32' E 030°58'0 0.0
2017-Sep-14 19:22N 46°32' E 030°58'0 0.0
2017-Sep-14 18:58N 46°32' E 030°58'0 0.0
2017-Sep-14 18:28N 46°32' E 030°58'0 0.0
2017-Sep-14 17:58N 46°32' E 030°58'0 0.0
2017-Sep-14 17:19N 46°32' E 030°58'0 0.0
2017-Sep-14 16:58N 46°32' E 030°58'0 0.0
2017-Sep-14 16:28N 46°32' E 030°58'0 0.0
2017-Sep-14 15:52N 46°32' E 030°58'0 0.0
2017-Sep-14 14:28N 46°32' E 030°58'0 0.0
2017-Sep-14 13:58N 46°32' E 030°58'0 0.0
2017-Sep-14 13:28N 46°32' E 030°58'0 0.0
2017-Sep-14 12:58N 46°32' E 030°58'0 0.0
2017-Sep-14 12:28N 46°32' E 030°58'0 0.0
2017-Sep-14 11:55N 46°32' E 030°58'0 0.0
2017-Sep-14 11:28N 46°32' E 030°58'0 0.1
2017-Sep-14 11:00N 46°32' E 030°58'0 0.2
2017-Sep-14 10:30N 46°32' E 030°58'1 2.0
2017-Sep-14 10:00N 46°33' E 030°58'3 6.4
2017-Sep-14 09:30N 46°35' E 031°01'3 6.1
2017-Sep-14 09:00N 46°38' E 031°01'0 0.7
2017-Sep-14 08:30N 46°39' E 031°01'0 0.0
2017-Sep-14 07:51N 46°39' E 031°01'0 0.0
2017-Sep-14 07:30N 46°39' E 031°01'0 0.0
2017-Sep-14 06:54N 46°39' E 031°01'0 0.0
2017-Sep-14 06:18N 46°39' E 031°01'0 0.0
2017-Sep-14 05:57N 46°39' E 031°01'0 0.0
2017-Sep-14 05:24N 46°39' E 031°01'0 0.0
2017-Sep-13 17:03N 46°39' E 031°01'0 0.1
2017-Sep-13 16:54N 46°39' E 031°01'0 0.0
2017-Sep-13 16:27N 46°39' E 031°01'0 0.0
2017-Sep-13 15:57N 46°39' E 031°01'0 0.0
2017-Sep-13 15:30N 46°39' E 031°01'0 0.0
2017-Sep-13 14:57N 46°39' E 031°01'0 0.0
2017-Sep-13 14:30N 46°39' E 031°01'0 0.0
2017-Sep-13 13:51N 46°39' E 031°01'0 0.0
2017-Sep-13 13:24N 46°39' E 031°01'0 0.0
2017-Sep-13 13:00N 46°39' E 031°01'0 0.0
2017-Sep-13 12:27N 46°39' E 031°01'0 0.0
2017-Sep-13 12:00N 46°39' E 031°01'0 0.0
2017-Sep-13 11:30N 46°39' E 031°01'0 0.0
2017-Sep-13 11:00N 46°39' E 031°01'0 0.0
2017-Sep-13 10:27N 46°39' E 031°01'0 0.0
2017-Sep-13 09:57N 46°39' E 031°01'0 0.0
2017-Sep-13 09:30N 46°39' E 031°01'0 0.0
2017-Sep-13 08:57N 46°39' E 031°01'0 0.0
2017-Sep-13 08:30N 46°39' E 031°01'0 0.0
2017-Sep-13 08:00N 46°39' E 031°01'0 0.0
2017-Sep-13 07:30N 46°39' E 031°01'0 0.0
2017-Sep-13 06:48N 46°39' E 031°01'0 0.0
2017-Sep-13 06:15N 46°39' E 031°01'0 0.0
2017-Sep-13 06:00N 46°39' E 031°01'0 0.0
2017-Sep-13 05:30N 46°39' E 031°01'0 0.0
2017-Sep-13 05:00N 46°39' E 031°01'0 0.0
2017-Sep-13 04:27N 46°39' E 031°01'0 0.0
2017-Sep-13 03:42N 46°39' E 031°01'0 0.0
2017-Sep-13 03:30N 46°39' E 031°01'0 0.0
2017-Sep-13 03:00N 46°39' E 031°01'0 0.0
2017-Sep-13 02:21N 46°39' E 031°01'0 0.0
2017-Sep-13 02:00N 46°39' E 031°01'0 0.0
2017-Sep-13 01:30N 46°39' E 031°01'0 0.0
2017-Sep-13 00:51N 46°39' E 031°01'0 0.0
2017-Sep-13 00:30N 46°39' E 031°01'0 0.0
2017-Sep-13 00:00N 46°39' E 031°01'0 0.0
2017-Sep-12 23:30N 46°39' E 031°01'0 0.0
2017-Sep-12 23:00N 46°39' E 031°01'0 0.0
2017-Sep-12 22:30N 46°39' E 031°01'0 0.0
2017-Sep-12 22:00N 46°39' E 031°01'0 0.0
2017-Sep-12 21:30N 46°39' E 031°01'0 0.0
2017-Sep-12 21:00N 46°39' E 031°01'0 0.0
2017-Sep-12 20:30N 46°39' E 031°01'0 0.0
2017-Sep-12 19:54N 46°39' E 031°01'0 0.0
2017-Sep-12 19:30N 46°39' E 031°01'0 0.0
2017-Sep-12 18:54N 46°39' E 031°01'0 0.0
2017-Sep-12 18:30N 46°39' E 031°01'0 0.0
2017-Sep-12 18:00N 46°39' E 031°01'0 0.0
2017-Sep-12 17:30N 46°39' E 031°01'0 0.0
2017-Sep-12 15:12N 46°39' E 031°01'0 0.0
2017-Sep-12 15:00N 46°39' E 031°01'0 0.0
2017-Sep-12 08:57N 46°39' E 031°01'0 0.0
2017-Sep-12 08:24N 46°39' E 031°01'0 0.0
2017-Sep-12 07:57N 46°39' E 031°01'0 0.0
2017-Sep-12 07:30N 46°39' E 031°01'0 0.0
2017-Sep-12 07:00N 46°39' E 031°01'0 0.0
2017-Sep-12 06:30N 46°39' E 031°01'0 0.0
2017-Sep-12 06:00N 46°39' E 031°01'0 0.0
2017-Sep-12 05:30N 46°39' E 031°01'0 0.0
2017-Sep-12 05:00N 46°39' E 031°01'0 0.0
2017-Sep-12 01:39N 46°39' E 031°01'0 0.0
2017-Sep-11 21:47N 46°39' E 031°01'1 4.0
2017-Sep-11 21:30N 46°38' E 031°01'4 7.1
2017-Sep-11 21:00N 46°34' E 031°00'3 6.1
2017-Sep-11 20:30N 46°34' E 031°05'2 3.1
2017-Sep-11 19:57N 46°34' E 031°07'0 0.1
2017-Sep-11 19:30N 46°34' E 031°07'0 0.1
2017-Sep-11 19:00N 46°34' E 031°07'0 0.0
2017-Sep-11 18:30N 46°34' E 031°07'  
Track history (hours):
 
Tides and Currents Weather Stations Pressure Air Temp Water Temp Dewpoint Dewpoint Depression Visibility Wind Speed Wind Dir Waves Ship Positions

Levantes

Last reported at 2017-Sep-21 18:20 UTC. Time now 2017-Oct-22 04:56 UTC.
Position N 37°11' E 025°49'.
Warning: this ship's position is 30 days out of date.

Length 225 m; draft 13 m.

Type: Cargo ship. MMSI: 538006969.

Date/timePositionNaut miles runAvg speedWind from/ knotsBaromVisibWave heightAir tempDewpointWater temp
2017-Sep-21 18:20N 37°11' E 025°49'411.5
2017-Sep-21 18:00N 37°12' E 025°44'812.0
2017-Sep-21 17:19N 37°14' E 025°34'412.2
2017-Sep-21 17:00N 37°15' E 025°30'612.0
2017-Sep-21 16:31N 37°16' E 025°22'612.0
2017-Sep-21 16:00N 37°18' E 025°15'611.6
2017-Sep-21 15:30N 37°18' E 025°08'611.4
2017-Sep-21 15:00N 37°17' E 025°00'611.7
2017-Sep-21 14:30N 37°17' E 024°53'5610.3
2017-Sep-21 09:08N 37°34' E 023°46'211.6
2017-Sep-21 09:00N 37°35' E 023°45'611.6
2017-Sep-21 08:30N 37°40' E 023°42'611.8
2017-Sep-21 08:00N 37°45' E 023°39'611.5
2017-Sep-21 07:30N 37°50' E 023°35'2 4.4
2017-Sep-21 06:58N 37°52' E 023°33'0 0.2
2017-Sep-21 06:28N 37°52' E 023°33'0 0.1
2017-Sep-21 05:58N 37°52' E 023°33'0 0.1
2017-Sep-21 05:28N 37°52' E 023°33'0 0.1
2017-Sep-21 04:58N 37°52' E 023°33'0 0.0
2017-Sep-21 04:28N 37°52' E 023°33'0 0.0
2017-Sep-21 03:58N 37°52' E 023°33'0 0.0
2017-Sep-21 03:28N 37°52' E 023°33'0 0.0
2017-Sep-21 02:58N 37°52' E 023°33'0 0.1
2017-Sep-21 02:30N 37°52' E 023°33'0 0.6
2017-Sep-21 02:00N 37°52' E 023°33'2 4.5
2017-Sep-21 01:30N 37°53' E 023°36'3 6.4
2017-Sep-21 01:00N 37°51' E 023°39'4 8.8
2017-Sep-21 00:30N 37°47' E 023°42'5 9.8
2017-Sep-21 00:00N 37°42' E 023°44'510.0
2017-Sep-20 23:30N 37°38' E 023°47'510.1
2017-Sep-20 23:00N 37°36' E 023°53'5 9.7
2017-Sep-20 22:30N 37°36' E 023°59'6 9.6
2017-Sep-20 21:51N 37°36' E 024°07'10 9.6
2017-Sep-20 20:47N 37°45' E 024°13'6 0.7
2017-Sep-20 12:23N 37°50' E 024°17'7 9.8
2017-Sep-20 11:42N 37°52' E 024°25'2 9.8
2017-Sep-20 11:31N 37°53' E 024°27'37 9.6
2017-Sep-20 07:39N 38°23' E 024°53'110.4
2017-Sep-20 07:31N 38°25' E 024°54'510.3
2017-Sep-20 07:01N 38°29' E 024°57'510.4
2017-Sep-20 06:30N 38°34' E 024°60'910.4
2017-Sep-20 05:36N 38°43' E 025°05'110.5
2017-Sep-20 05:29N 38°44' E 025°05'810.6
2017-Sep-20 04:43N 38°51' E 025°11'1510.3
2017-Sep-20 03:17N 39°04' E 025°20'4110.5
2017-Sep-19 23:24N 39°40' E 025°44'410.9
2017-Sep-19 23:00N 39°44' E 025°46'510.8
2017-Sep-19 22:30N 39°49' E 025°49'611.1
2017-Sep-19 22:00N 39°53' E 025°53'611.2
2017-Sep-19 21:28N 39°59' E 025°57'610.0
2017-Sep-19 20:52N 40°01' E 026°04'410.1
2017-Sep-19 20:30N 40°02' E 026°09'510.2
2017-Sep-19 20:00N 40°03' E 026°15'10 9.5
2017-Sep-19 18:58N 40°11' E 026°23'8 9.8
2017-Sep-19 18:11N 40°16' E 026°31'410.2
2017-Sep-19 17:49N 40°18' E 026°34'810.5
2017-Sep-19 17:06N 40°24' E 026°41'110.3
2017-Sep-19 16:58N 40°25' E 026°42'510.6
2017-Sep-19 16:30N 40°27' E 026°48'510.2
2017-Sep-19 16:00N 40°30' E 026°53'113 6.7
2017-Sep-18 23:13N 41°18' E 029°08'2 8.9
2017-Sep-18 23:00N 41°20' E 029°09'7 9.3
2017-Sep-18 22:17N 41°26' E 029°13'0 0.4
2017-Sep-18 21:12N 41°26' E 029°13'0 0.4
2017-Sep-18 21:00N 41°26' E 029°13'0 0.4
2017-Sep-18 20:11N 41°26' E 029°13'0 0.5
2017-Sep-18 20:00N 41°26' E 029°14'0 0.5
2017-Sep-18 19:30N 41°26' E 029°14'0 0.5
2017-Sep-18 18:56N 41°26' E 029°14'0 0.5
2017-Sep-18 18:13N 41°26' E 029°15'0 0.5
2017-Sep-18 17:19N 41°26' E 029°15'0 0.4
2017-Sep-18 17:01N 41°26' E 029°15'0 0.4
2017-Sep-18 15:56N 41°27' E 029°16'0 0.4
2017-Sep-18 15:26N 41°27' E 029°16'0 0.5
2017-Sep-18 15:00N 41°27' E 029°16'0 0.4
2017-Sep-18 14:29N 41°27' E 029°16'0 0.5
2017-Sep-18 14:00N 41°27' E 029°16'0 0.4
2017-Sep-18 13:30N 41°27' E 029°17'0 0.4
2017-Sep-18 12:58N 41°28' E 029°17'0 0.4
2017-Sep-18 12:12N 41°28' E 029°17'0 0.4
2017-Sep-18 12:00N 41°28' E 029°17'2 0.3
2017-Sep-18 06:16N 41°29' E 029°15'0 0.2
2017-Sep-18 05:38N 41°29' E 029°15'0 0.2
2017-Sep-18 05:30N 41°29' E 029°15'0 0.2
2017-Sep-18 04:57N 41°29' E 029°15'0 0.2
2017-Sep-18 04:29N 41°29' E 029°15'0 0.1
2017-Sep-18 04:01N 41°29' E 029°15'0 0.1
2017-Sep-18 03:30N 41°29' E 029°15'0 0.1
2017-Sep-18 02:58N 41°29' E 029°15'0 0.2
2017-Sep-18 02:30N 41°29' E 029°15'0 0.1
2017-Sep-18 02:01N 41°29' E 029°15'0 0.1
2017-Sep-18 01:30N 41°29' E 029°15'0 0.2
2017-Sep-18 01:00N 41°29' E 029°15'0 0.2
2017-Sep-18 00:30N 41°29' E 029°15'0 0.2
2017-Sep-18 00:00N 41°29' E 029°15'0 0.2
2017-Sep-17 23:30N 41°29' E 029°15'0 0.2
2017-Sep-17 23:01N 41°29' E 029°15'0 0.2
2017-Sep-17 22:30N 41°29' E 029°15'0 0.3
2017-Sep-17 22:00N 41°30' E 029°15'0 0.3
2017-Sep-17 21:30N 41°30' E 029°16'0 0.3
2017-Sep-17 20:57N 41°30' E 029°16'0 0.4
2017-Sep-17 20:14N 41°30' E 029°16'0 0.4
2017-Sep-17 19:47N 41°30' E 029°16'11 2.8
2017-Sep-17 15:39N 41°42' E 029°17'110.0
2017-Sep-17 15:30N 41°43' E 029°18'9 9.9
2017-Sep-17 14:37N 41°51' E 029°21'21 9.8
2017-Sep-17 12:29N 42°12' E 029°28'8 9.7
2017-Sep-17 11:41N 42°19' E 029°32'2 9.9
2017-Sep-17 11:29N 42°21' E 029°32'5 9.8
2017-Sep-17 11:00N 42°25' E 029°34'5 9.8
2017-Sep-17 10:29N 42°30' E 029°36'5 9.8
2017-Sep-17 10:00N 42°35' E 029°38'510.0
2017-Sep-17 09:30N 42°40' E 029°40'510.3
2017-Sep-17 09:00N 42°44' E 029°42'510.3
2017-Sep-17 08:30N 42°49' E 029°44'510.7
2017-Sep-17 08:00N 42°54' E 029°47'610.8
2017-Sep-17 07:29N 42°60' E 029°48'2511.0
2017-Sep-17 05:13N 43°24' E 029°58'311.1
2017-Sep-17 05:00N 43°26' E 029°59'511.0
2017-Sep-17 04:30N 43°31' E 030°01'611.1
2017-Sep-17 04:00N 43°37' E 030°03'611.0
2017-Sep-17 03:30N 43°42' E 030°06'611.1
2017-Sep-17 02:56N 43°48' E 030°08'511.2
2017-Sep-17 02:30N 43°53' E 030°10'511.1
2017-Sep-17 02:00N 43°58' E 030°12'611.1
2017-Sep-17 01:30N 44°03' E 030°14'611.1
2017-Sep-17 01:00N 44°09' E 030°16'511.0
2017-Sep-17 00:30N 44°14' E 030°19'511.0
2017-Sep-17 00:01N 44°19' E 030°21'611.1
2017-Sep-16 23:31N 44°24' E 030°23'611.2
2017-Sep-16 23:00N 44°30' E 030°25'611.2
2017-Sep-16 22:30N 44°35' E 030°27'510.9
2017-Sep-16 22:00N 44°40' E 030°30'510.9
2017-Sep-16 21:31N 44°46' E 030°32'510.8
2017-Sep-16 21:00N 44°51' E 030°34'510.6
2017-Sep-16 20:30N 44°56' E 030°36'510.7
2017-Sep-16 20:00N 45°01' E 030°38'510.8
2017-Sep-16 19:31N 45°06' E 030°40'510.9
2017-Sep-16 19:01N 45°11' E 030°42'510.8
2017-Sep-16 18:30N 45°17' E 030°45'510.7
2017-Sep-16 18:01N 45°22' E 030°47'510.9
2017-Sep-16 17:31N 45°27' E 030°49'510.6
2017-Sep-16 17:00N 45°32' E 030°51'510.8
2017-Sep-16 16:30N 45°37' E 030°53'510.8
2017-Sep-16 16:00N 45°42' E 030°55'510.5
2017-Sep-16 15:31N 45°47' E 030°57'510.6
2017-Sep-16 15:01N 45°53' E 030°60'510.6
2017-Sep-16 14:31N 45°58' E 031°02'510.7
2017-Sep-16 14:00N 46°03' E 031°04'510.0
2017-Sep-16 13:30N 46°08' E 031°03'510.7
2017-Sep-16 13:00N 46°12' E 030°58'5 9.9
2017-Sep-16 12:30N 46°15' E 030°54'510.7
2017-Sep-16 12:00N 46°21' E 030°55'510.3
2017-Sep-16 11:30N 46°26' E 030°55'5 9.8
2017-Sep-16 10:59N 46°31' E 030°56'2 3.4
2017-Sep-16 10:27N 46°32' E 030°58'0 0.1
2017-Sep-16 10:00N 46°32' E 030°58'0 0.0
2017-Sep-16 09:27N 46°32' E 030°58'0 0.0
2017-Sep-16 08:51N 46°32' E 030°58'0 0.0
2017-Sep-16 07:54N 46°32' E 030°58'0 0.0
2017-Sep-16 07:27N 46°32' E 030°58'0 0.0
2017-Sep-16 06:30N 46°32' E 030°58'0 0.0
2017-Sep-16 05:39N 46°32' E 030°58'0 0.0
2017-Sep-16 05:30N 46°32' E 030°58'0 0.0
2017-Sep-15 23:33N 46°32' E 030°58'0 0.0
2017-Sep-15 23:21N 46°32' E 030°58'0 0.0
2017-Sep-15 23:00N 46°32' E 030°58'0 0.0
2017-Sep-15 22:30N 46°32' E 030°58'0 0.0
2017-Sep-15 19:04N 46°32' E 030°58'0 0.1
2017-Sep-15 18:40N 46°32' E 030°58'0 0.1
2017-Sep-15 18:19N 46°32' E 030°58'0 0.2
2017-Sep-15 17:10N 46°32' E 030°58'0 0.1
2017-Sep-15 16:58N 46°32' E 030°58'0 0.1
2017-Sep-15 16:22N 46°32' E 030°58'0 0.0
2017-Sep-15 15:58N 46°32' E 030°58'0 0.0
2017-Sep-15 14:10N 46°32' E 030°58'0 0.0
2017-Sep-15 13:58N 46°32' E 030°58'0 0.0
2017-Sep-15 13:28N 46°32' E 030°58'0 0.0
2017-Sep-15 12:55N 46°32' E 030°58'0 0.0
2017-Sep-15 12:22N 46°32' E 030°58'0 0.0
2017-Sep-15 10:25N 46°32' E 030°58'0 0.0
2017-Sep-15 06:25N 46°32' E 030°58'0 0.0
2017-Sep-15 03:31N 46°32' E 030°58'0 0.1
2017-Sep-15 03:25N 46°32' E 030°58'0 0.0
2017-Sep-14 23:52N 46°32' E 030°58'0 0.0
2017-Sep-14 23:28N 46°32' E 030°58'0 0.0
2017-Sep-14 22:58N 46°32' E 030°58'0 0.0
2017-Sep-14 22:28N 46°32' E 030°58'0 0.0
2017-Sep-14 21:58N 46°32' E 030°58'0 0.0
2017-Sep-14 21:28N 46°32' E 030°58'0 0.0
2017-Sep-14 20:16N 46°32' E 030°58'0 0.0
2017-Sep-14 19:58N 46°32' E 030°58'0 0.0
2017-Sep-14 19:22N 46°32' E 030°58'0 0.0
2017-Sep-14 18:58N 46°32' E 030°58'0 0.0
2017-Sep-14 18:28N 46°32' E 030°58'0 0.0
2017-Sep-14 17:58N 46°32' E 030°58'0 0.0
2017-Sep-14 17:19N 46°32' E 030°58'0 0.0
2017-Sep-14 16:58N 46°32' E 030°58'0 0.0
2017-Sep-14 16:28N 46°32' E 030°58'0 0.0
2017-Sep-14 15:52N 46°32' E 030°58'0 0.0
2017-Sep-14 14:28N 46°32' E 030°58'0 0.0
2017-Sep-14 13:58N 46°32' E 030°58'0 0.0
2017-Sep-14 13:28N 46°32' E 030°58'0 0.0
2017-Sep-14 12:58N 46°32' E 030°58'0 0.0
2017-Sep-14 12:28N 46°32' E 030°58'0 0.0
2017-Sep-14 11:55N 46°32' E 030°58'0 0.0
2017-Sep-14 11:28N 46°32' E 030°58'0 0.1
2017-Sep-14 11:00N 46°32' E 030°58'0 0.2
2017-Sep-14 10:30N 46°32' E 030°58'1 2.0
2017-Sep-14 10:00N 46°33' E 030°58'3 6.4
2017-Sep-14 09:30N 46°35' E 031°01'3 6.1
2017-Sep-14 09:00N 46°38' E 031°01'0 0.7
2017-Sep-14 08:30N 46°39' E 031°01'0 0.0
2017-Sep-14 07:51N 46°39' E 031°01'0 0.0
2017-Sep-14 07:30N 46°39' E 031°01'0 0.0
2017-Sep-14 06:54N 46°39' E 031°01'0 0.0
2017-Sep-14 06:18N 46°39' E 031°01'0 0.0
2017-Sep-14 05:57N 46°39' E 031°01'0 0.0
2017-Sep-14 05:24N 46°39' E 031°01'0 0.0
2017-Sep-13 17:03N 46°39' E 031°01'0 0.1
2017-Sep-13 16:54N 46°39' E 031°01'0 0.0
2017-Sep-13 16:27N 46°39' E 031°01'0 0.0
2017-Sep-13 15:57N 46°39' E 031°01'0 0.0
2017-Sep-13 15:30N 46°39' E 031°01'0 0.0
2017-Sep-13 14:57N 46°39' E 031°01'0 0.0
2017-Sep-13 14:30N 46°39' E 031°01'0 0.0
2017-Sep-13 13:51N 46°39' E 031°01'0 0.0
2017-Sep-13 13:24N 46°39' E 031°01'0 0.0
2017-Sep-13 13:00N 46°39' E 031°01'0 0.0
2017-Sep-13 12:27N 46°39' E 031°01'0 0.0
2017-Sep-13 12:00N 46°39' E 031°01'0 0.0
2017-Sep-13 11:30N 46°39' E 031°01'0 0.0
2017-Sep-13 11:00N 46°39' E 031°01'0 0.0
2017-Sep-13 10:27N 46°39' E 031°01'0 0.0
2017-Sep-13 09:57N 46°39' E 031°01'0 0.0
2017-Sep-13 09:30N 46°39' E 031°01'0 0.0
2017-Sep-13 08:57N 46°39' E 031°01'0 0.0
2017-Sep-13 08:30N 46°39' E 031°01'0 0.0
2017-Sep-13 08:00N 46°39' E 031°01'0 0.0
2017-Sep-13 07:30N 46°39' E 031°01'0 0.0
2017-Sep-13 06:48N 46°39' E 031°01'0 0.0
2017-Sep-13 06:15N 46°39' E 031°01'0 0.0
2017-Sep-13 06:00N 46°39' E 031°01'0 0.0
2017-Sep-13 05:30N 46°39' E 031°01'0 0.0
2017-Sep-13 05:00N 46°39' E 031°01'0 0.0
2017-Sep-13 04:27N 46°39' E 031°01'0 0.0
2017-Sep-13 03:42N 46°39' E 031°01'0 0.0
2017-Sep-13 03:30N 46°39' E 031°01'0 0.0
2017-Sep-13 03:00N 46°39' E 031°01'0 0.0
2017-Sep-13 02:21N 46°39' E 031°01'0 0.0
2017-Sep-13 02:00N 46°39' E 031°01'0 0.0
2017-Sep-13 01:30N 46°39' E 031°01'0 0.0
2017-Sep-13 00:51N 46°39' E 031°01'0 0.0
2017-Sep-13 00:30N 46°39' E 031°01'0 0.0
2017-Sep-13 00:00N 46°39' E 031°01'0 0.0
2017-Sep-12 23:30N 46°39' E 031°01'0 0.0
2017-Sep-12 23:00N 46°39' E 031°01'0 0.0
2017-Sep-12 22:30N 46°39' E 031°01'0 0.0
2017-Sep-12 22:00N 46°39' E 031°01'0 0.0
2017-Sep-12 21:30N 46°39' E 031°01'0 0.0
2017-Sep-12 21:00N 46°39' E 031°01'0 0.0
2017-Sep-12 20:30N 46°39' E 031°01'0 0.0
2017-Sep-12 19:54N 46°39' E 031°01'0 0.0
2017-Sep-12 19:30N 46°39' E 031°01'0 0.0
2017-Sep-12 18:54N 46°39' E 031°01'0 0.0
2017-Sep-12 18:30N 46°39' E 031°01'0 0.0
2017-Sep-12 18:00N 46°39' E 031°01'0 0.0
2017-Sep-12 17:30N 46°39' E 031°01'0 0.0
2017-Sep-12 15:12N 46°39' E 031°01'0 0.0
2017-Sep-12 15:00N 46°39' E 031°01'0 0.0
2017-Sep-12 08:57N 46°39' E 031°01'0 0.0
2017-Sep-12 08:24N 46°39' E 031°01'0 0.0
2017-Sep-12 07:57N 46°39' E 031°01'0 0.0
2017-Sep-12 07:30N 46°39' E 031°01'0 0.0
2017-Sep-12 07:00N 46°39' E 031°01'0 0.0
2017-Sep-12 06:30N 46°39' E 031°01'0 0.0
2017-Sep-12 06:00N 46°39' E 031°01'0 0.0
2017-Sep-12 05:30N 46°39' E 031°01'0 0.0
2017-Sep-12 05:00N 46°39' E 031°01'0 0.0
2017-Sep-12 01:39N 46°39' E 031°01'0 0.0
2017-Sep-11 21:47N 46°39' E 031°01'1 4.0
2017-Sep-11 21:30N 46°38' E 031°01'4 7.1
2017-Sep-11 21:00N 46°34' E 031°00'3 6.1
2017-Sep-11 20:30N 46°34' E 031°05'2 3.1
2017-Sep-11 19:57N 46°34' E 031°07'0 0.1
2017-Sep-11 19:30N 46°34' E 031°07'0 0.1
2017-Sep-11 19:00N 46°34' E 031°07'0 0.0
2017-Sep-11 18:30N 46°34' E 031°07'  

Dump ship's entire track history